createdAt,value
2018-07-14T00:00:02.048Z,15.20
2018-07-14T00:00:35.096Z,15.20
2018-07-14T00:01:08.452Z,15.30
2018-07-14T00:01:44.858Z,15.30
2018-07-14T00:02:17.941Z,15.20
2018-07-14T00:02:51.049Z,15.20
2018-07-14T00:03:25.575Z,15.20
2018-07-14T00:03:58.634Z,15.20
2018-07-14T00:04:31.665Z,15.20
2018-07-14T00:05:05.169Z,15.30
2018-07-14T00:05:38.267Z,15.10
2018-07-14T00:06:11.315Z,15.20
2018-07-14T00:06:44.365Z,15.20
2018-07-14T00:07:17.389Z,15.20
2018-07-14T00:07:50.411Z,15.20
2018-07-14T00:08:23.488Z,15.20
2018-07-14T00:08:56.559Z,15.20
2018-07-14T00:09:29.607Z,15.20
2018-07-14T00:10:02.869Z,15.20
2018-07-14T00:10:35.887Z,15.10
2018-07-14T00:11:08.991Z,15.10
2018-07-14T00:11:42.069Z,15.10
2018-07-14T00:12:15.109Z,15.10
2018-07-14T00:12:48.145Z,15.10
2018-07-14T00:13:21.224Z,15.10
2018-07-14T00:13:54.307Z,15.10
2018-07-14T00:14:27.384Z,15.00
2018-07-14T00:15:00.459Z,15.10
2018-07-14T00:15:33.517Z,15.20
2018-07-14T00:16:06.727Z,15.10
2018-07-14T00:16:39.764Z,15.10
2018-07-14T00:17:12.865Z,15.10
2018-07-14T00:17:45.903Z,15.00
2018-07-14T00:18:18.915Z,15.10
2018-07-14T00:18:51.955Z,15.10
2018-07-14T00:19:25.001Z,15.20
2018-07-14T00:19:58.063Z,15.10
2018-07-14T00:20:31.161Z,15.00
2018-07-14T00:21:04.221Z,15.10
2018-07-14T00:21:37.279Z,15.00
2018-07-14T00:22:10.304Z,15.00
2018-07-14T00:22:43.393Z,15.00
2018-07-14T00:23:16.455Z,15.00
2018-07-14T00:23:49.483Z,15.00
2018-07-14T00:24:22.582Z,14.90
2018-07-14T00:24:55.545Z,14.90
2018-07-14T00:25:34.395Z,15.00
2018-07-14T00:26:07.424Z,15.00
2018-07-14T00:26:40.469Z,15.00
2018-07-14T00:27:13.505Z,15.00
2018-07-14T00:27:46.540Z,15.00
2018-07-14T00:28:19.697Z,15.00
2018-07-14T00:28:52.717Z,15.00
2018-07-14T00:29:25.763Z,14.90
2018-07-14T00:29:58.797Z,15.00
2018-07-14T00:30:31.843Z,15.10
2018-07-14T00:31:04.895Z,15.00
2018-07-14T00:31:38.176Z,15.00
2018-07-14T00:32:11.529Z,15.00
2018-07-14T00:32:44.560Z,14.90
2018-07-14T00:33:17.641Z,14.90
2018-07-14T00:33:50.672Z,15.00
2018-07-14T00:34:23.703Z,15.00
2018-07-14T00:34:56.735Z,14.90
2018-07-14T00:35:29.767Z,15.00
2018-07-14T00:36:02.785Z,14.90
2018-07-14T00:36:35.819Z,14.90
2018-07-14T00:37:08.850Z,14.90
2018-07-14T00:37:41.864Z,14.90
2018-07-14T00:38:14.895Z,15.00
2018-07-14T00:38:47.944Z,15.00
2018-07-14T00:39:20.981Z,15.00
2018-07-14T00:39:54.192Z,14.90
2018-07-14T00:40:27.305Z,15.00
2018-07-14T00:41:00.345Z,15.00
2018-07-14T00:41:33.439Z,14.90
2018-07-14T00:42:06.537Z,15.00
2018-07-14T00:42:39.553Z,14.90
2018-07-14T00:43:12.625Z,14.90
2018-07-14T00:43:45.663Z,14.90
2018-07-14T00:44:18.741Z,15.00
2018-07-14T00:44:51.823Z,14.90
2018-07-14T00:45:24.885Z,14.90
2018-07-14T00:45:57.928Z,14.90
2018-07-14T00:46:30.959Z,14.90
2018-07-14T00:47:04.303Z,14.90
2018-07-14T00:47:37.327Z,14.90
2018-07-14T00:48:10.395Z,14.80
2018-07-14T00:48:43.471Z,14.80
2018-07-14T00:49:16.541Z,14.90
2018-07-14T00:49:49.549Z,14.90
2018-07-14T00:50:22.591Z,14.80
2018-07-14T00:50:55.613Z,14.90
2018-07-14T00:51:28.673Z,14.90
2018-07-14T00:52:01.742Z,14.90
2018-07-14T00:52:34.749Z,14.90
2018-07-14T00:53:07.883Z,14.90
2018-07-14T00:53:41.026Z,14.90
2018-07-14T00:54:14.038Z,14.80
2018-07-14T00:54:47.049Z,14.90
2018-07-14T00:55:20.064Z,14.80
2018-07-14T00:55:53.141Z,14.80
2018-07-14T00:56:26.212Z,14.80
2018-07-14T00:56:59.284Z,14.80
2018-07-14T00:57:32.333Z,14.80
2018-07-14T00:58:05.414Z,14.80
2018-07-14T00:58:38.663Z,14.80
2018-07-14T00:59:11.736Z,14.70
2018-07-14T00:59:44.757Z,14.70
2018-07-14T01:00:17.871Z,14.80
2018-07-14T01:00:50.902Z,14.70
2018-07-14T01:01:23.915Z,14.80
2018-07-14T01:01:56.946Z,14.80
2018-07-14T01:02:30.007Z,14.70
2018-07-14T01:03:03.084Z,14.80
2018-07-14T01:03:36.124Z,14.70
2018-07-14T01:04:09.156Z,14.80
2018-07-14T01:04:42.214Z,14.80
2018-07-14T01:05:15.254Z,14.70
2018-07-14T01:05:48.280Z,14.70
2018-07-14T01:06:21.435Z,14.80
2018-07-14T01:06:54.501Z,14.80
2018-07-14T01:07:27.608Z,14.80
2018-07-14T01:08:00.629Z,14.80
2018-07-14T01:08:33.696Z,14.80
2018-07-14T01:09:07.176Z,14.80
2018-07-14T01:09:40.223Z,14.80
2018-07-14T01:10:13.257Z,14.80
2018-07-14T01:10:46.321Z,14.80
2018-07-14T01:11:19.402Z,14.80
2018-07-14T01:11:52.436Z,14.80
2018-07-14T01:12:25.499Z,14.90
2018-07-14T01:12:58.511Z,14.90
2018-07-14T01:13:31.536Z,15.00
2018-07-14T01:14:04.602Z,15.00
2018-07-14T01:14:37.640Z,14.90
2018-07-14T01:15:10.674Z,15.00
2018-07-14T01:15:43.748Z,14.90
2018-07-14T01:16:16.866Z,15.00
2018-07-14T01:16:49.912Z,14.90
2018-07-14T01:17:22.938Z,14.90
2018-07-14T01:17:55.984Z,14.90
2018-07-14T01:18:28.994Z,15.00
2018-07-14T01:19:02.014Z,15.00
2018-07-14T01:19:35.059Z,15.00
2018-07-14T01:20:08.096Z,14.80
2018-07-14T01:20:41.140Z,14.90
2018-07-14T01:21:14.172Z,14.90
2018-07-14T01:21:47.225Z,14.90
2018-07-14T01:22:20.384Z,14.90
2018-07-14T01:22:53.699Z,14.90
2018-07-14T01:23:26.790Z,14.90
2018-07-14T01:23:59.915Z,14.90
2018-07-14T01:24:32.909Z,14.90
2018-07-14T01:25:06.289Z,14.80
2018-07-14T01:25:39.316Z,14.80
2018-07-14T01:26:12.346Z,14.90
2018-07-14T01:26:45.391Z,14.80
2018-07-14T01:27:18.402Z,14.90
2018-07-14T01:27:51.391Z,14.90
2018-07-14T01:28:24.390Z,14.80
2018-07-14T01:28:57.400Z,14.80
2018-07-14T01:29:30.415Z,14.80
2018-07-14T01:30:03.508Z,14.80
2018-07-14T01:30:36.538Z,14.70
2018-07-14T01:31:09.613Z,14.70
2018-07-14T01:31:42.747Z,14.80
2018-07-14T01:32:15.927Z,14.80
2018-07-14T01:32:48.949Z,14.70
2018-07-14T01:33:21.995Z,14.70
2018-07-14T01:33:54.989Z,14.60
2018-07-14T01:34:28.006Z,14.60
2018-07-14T01:35:01.025Z,14.70
2018-07-14T01:35:34.029Z,14.70
2018-07-14T01:36:07.073Z,14.70
2018-07-14T01:36:40.190Z,14.60
2018-07-14T01:37:13.179Z,14.70
2018-07-14T01:37:46.162Z,14.70
2018-07-14T01:38:19.196Z,14.60
2018-07-14T01:38:52.193Z,14.70
2018-07-14T01:39:25.202Z,14.50
2018-07-14T01:39:58.239Z,14.60
2018-07-14T01:40:31.360Z,14.60
2018-07-14T01:41:04.352Z,14.70
2018-07-14T01:41:37.637Z,14.60
2018-07-14T01:42:10.706Z,14.60
2018-07-14T01:42:43.733Z,14.60
2018-07-14T01:43:16.749Z,14.60
2018-07-14T01:43:49.807Z,14.60
2018-07-14T01:44:22.823Z,14.60
2018-07-14T01:44:55.878Z,14.70
2018-07-14T01:45:28.893Z,14.60
2018-07-14T01:46:01.956Z,14.60
2018-07-14T01:46:35.000Z,14.60
2018-07-14T01:47:07.996Z,14.70
2018-07-14T01:47:41.053Z,14.60
2018-07-14T01:48:14.126Z,14.60
2018-07-14T01:48:47.139Z,14.60
2018-07-14T01:49:20.132Z,14.50
2018-07-14T01:49:53.130Z,14.60
2018-07-14T01:50:26.175Z,14.60
2018-07-14T01:50:59.210Z,14.60
2018-07-14T01:51:32.326Z,14.60
2018-07-14T01:52:05.393Z,14.50
2018-07-14T01:52:38.403Z,14.50
2018-07-14T01:53:11.423Z,14.50
2018-07-14T01:53:44.447Z,14.50
2018-07-14T01:54:17.690Z,14.50
2018-07-14T01:54:50.692Z,14.50
2018-07-14T01:55:23.822Z,14.40
2018-07-14T01:55:56.864Z,14.50
2018-07-14T01:56:29.887Z,14.40
2018-07-14T01:57:02.910Z,14.40
2018-07-14T01:57:35.955Z,14.30
2018-07-14T01:58:08.975Z,14.40
2018-07-14T01:58:42.040Z,14.40
2018-07-14T01:59:15.145Z,14.30
2018-07-14T01:59:48.155Z,14.40
2018-07-14T02:00:21.215Z,14.40
2018-07-14T02:00:54.295Z,14.40
2018-07-14T02:01:27.339Z,14.40
2018-07-14T02:02:05.377Z,14.40
2018-07-14T02:02:38.440Z,14.40
2018-07-14T02:03:11.449Z,14.40
2018-07-14T02:03:44.568Z,14.40
2018-07-14T02:04:17.553Z,14.40
2018-07-14T02:04:50.603Z,14.30
2018-07-14T02:05:23.619Z,14.30
2018-07-14T02:05:56.636Z,14.30
2018-07-14T02:06:29.694Z,14.30
2018-07-14T02:07:02.755Z,14.30
2018-07-14T02:07:35.909Z,14.20
2018-07-14T02:08:08.951Z,14.30
2018-07-14T02:08:42.813Z,14.30
2018-07-14T02:09:15.815Z,14.20
2018-07-14T02:09:48.846Z,14.20
2018-07-14T02:10:21.879Z,14.20
2018-07-14T02:10:54.936Z,14.20
2018-07-14T02:11:27.965Z,14.30
2018-07-14T02:12:01.018Z,14.20
2018-07-14T02:12:34.071Z,14.20
2018-07-14T02:13:07.172Z,14.30
2018-07-14T02:13:40.232Z,14.20
2018-07-14T02:14:13.340Z,14.30
2018-07-14T02:14:46.373Z,14.30
2018-07-14T02:15:19.397Z,14.30
2018-07-14T02:15:52.449Z,14.20
2018-07-14T02:16:25.480Z,14.30
2018-07-14T02:16:58.712Z,14.30
2018-07-14T02:17:31.725Z,14.30
2018-07-14T02:18:04.775Z,14.40
2018-07-14T02:18:37.803Z,14.30
2018-07-14T02:19:10.847Z,14.40
2018-07-14T02:19:43.877Z,14.30
2018-07-14T02:20:16.963Z,14.40
2018-07-14T02:20:50.013Z,14.40
2018-07-14T02:21:23.107Z,14.50
2018-07-14T02:21:56.123Z,14.40
2018-07-14T02:22:29.139Z,14.40
2018-07-14T02:23:02.165Z,14.50
2018-07-14T02:23:35.207Z,14.60
2018-07-14T02:24:08.243Z,14.50
2018-07-14T02:24:41.249Z,14.60
2018-07-14T02:25:14.270Z,14.60
2018-07-14T02:25:47.570Z,14.50
2018-07-14T02:26:20.607Z,14.60
2018-07-14T02:26:53.638Z,14.60
2018-07-14T02:27:26.652Z,14.70
2018-07-14T02:27:59.702Z,14.70
2018-07-14T02:28:32.735Z,14.60
2018-07-14T02:29:05.787Z,14.60
2018-07-14T02:29:38.839Z,14.70
2018-07-14T02:30:11.890Z,14.80
2018-07-14T02:30:44.926Z,14.70
2018-07-14T02:31:17.949Z,14.70
2018-07-14T02:31:51.013Z,14.70
2018-07-14T02:32:24.078Z,14.80
2018-07-14T02:32:57.199Z,14.70
2018-07-14T02:33:30.253Z,14.80
2018-07-14T02:34:03.294Z,14.70
2018-07-14T02:34:36.319Z,14.80
2018-07-14T02:35:09.397Z,14.80
2018-07-14T02:35:42.435Z,14.70
2018-07-14T02:36:15.458Z,14.80
2018-07-14T02:36:48.481Z,14.80
2018-07-14T02:37:21.547Z,14.80
2018-07-14T02:37:54.611Z,14.90
2018-07-14T02:38:27.704Z,14.80
2018-07-14T02:39:00.802Z,14.90
2018-07-14T02:39:33.851Z,14.80
2018-07-14T02:40:06.890Z,14.80
2018-07-14T02:40:39.908Z,14.90
2018-07-14T02:41:12.979Z,15.00
2018-07-14T02:41:46.029Z,14.90
2018-07-14T02:42:19.115Z,14.90
2018-07-14T02:42:52.132Z,14.90
2018-07-14T02:43:25.175Z,14.90
2018-07-14T02:43:58.209Z,14.90
2018-07-14T02:44:31.336Z,14.90
2018-07-14T02:45:05.444Z,14.90
2018-07-14T02:45:38.492Z,15.00
2018-07-14T02:46:11.559Z,14.90
2018-07-14T02:46:44.615Z,15.00
2018-07-14T02:47:17.640Z,15.00
2018-07-14T02:47:50.666Z,15.00
2018-07-14T02:48:23.723Z,15.00
2018-07-14T02:48:56.757Z,15.00
2018-07-14T02:49:29.764Z,15.00
2018-07-14T02:50:02.892Z,15.10
2018-07-14T02:50:35.911Z,15.10
2018-07-14T02:51:08.941Z,15.10
2018-07-14T02:51:42.010Z,15.10
2018-07-14T02:52:15.028Z,15.10
2018-07-14T02:52:48.062Z,15.10
2018-07-14T02:53:21.164Z,15.20
2018-07-14T02:53:54.209Z,15.10
2018-07-14T02:54:27.272Z,15.10
2018-07-14T02:55:00.324Z,15.10
2018-07-14T02:55:33.375Z,15.10
2018-07-14T02:56:06.382Z,15.00
2018-07-14T02:56:39.385Z,15.00
2018-07-14T02:57:12.368Z,15.10
2018-07-14T02:57:45.410Z,15.10
2018-07-14T02:58:18.452Z,15.10
2018-07-14T02:58:51.523Z,15.00
2018-07-14T02:59:24.523Z,15.00
2018-07-14T02:59:57.520Z,15.00
2018-07-14T03:00:30.565Z,15.00
2018-07-14T03:01:03.880Z,14.90
2018-07-14T03:01:36.970Z,14.90
2018-07-14T03:02:10.118Z,14.90
2018-07-14T03:02:43.140Z,14.90
2018-07-14T03:03:16.212Z,14.90
2018-07-14T03:03:49.286Z,14.80
2018-07-14T03:04:22.344Z,14.80
2018-07-14T03:04:55.350Z,14.70
2018-07-14T03:05:28.391Z,14.80
2018-07-14T03:06:01.434Z,14.70
2018-07-14T03:06:34.443Z,14.70
2018-07-14T03:07:07.486Z,14.70
2018-07-14T03:07:40.480Z,14.70
2018-07-14T03:08:13.520Z,14.70
2018-07-14T03:08:46.548Z,14.70
2018-07-14T03:09:19.588Z,14.70
2018-07-14T03:09:52.634Z,14.70
2018-07-14T03:10:25.690Z,14.60
2018-07-14T03:10:58.739Z,14.70
2018-07-14T03:11:31.804Z,14.60
2018-07-14T03:12:05.177Z,14.70
2018-07-14T03:12:38.180Z,14.60
2018-07-14T03:13:11.192Z,14.60
2018-07-14T03:13:44.386Z,14.60
2018-07-14T03:14:17.463Z,14.50
2018-07-14T03:14:50.483Z,14.50
2018-07-14T03:15:23.545Z,14.50
2018-07-14T03:15:56.607Z,14.50
2018-07-14T03:16:29.794Z,14.40
2018-07-14T03:17:02.881Z,14.50
2018-07-14T03:17:35.928Z,14.40
2018-07-14T03:18:09.064Z,14.40
2018-07-14T03:18:42.114Z,14.40
2018-07-14T03:19:15.182Z,14.40
2018-07-14T03:19:48.202Z,14.30
2018-07-14T03:20:21.296Z,14.40
2018-07-14T03:20:54.382Z,14.30
2018-07-14T03:21:27.424Z,14.30
2018-07-14T03:22:00.438Z,14.30
2018-07-14T03:22:33.458Z,14.20
2018-07-14T03:23:06.520Z,14.20
2018-07-14T03:23:39.548Z,14.20
2018-07-14T03:24:12.560Z,14.20
2018-07-14T03:24:45.608Z,14.30
2018-07-14T03:25:18.630Z,14.20
2018-07-14T03:25:51.672Z,14.20
2018-07-14T03:26:24.737Z,14.20
2018-07-14T03:26:57.742Z,14.10
2018-07-14T03:27:30.766Z,14.10
2018-07-14T03:28:04.563Z,14.20
2018-07-14T03:28:37.609Z,14.20
2018-07-14T03:29:11.289Z,14.20
2018-07-14T03:29:44.281Z,14.20
2018-07-14T03:30:17.302Z,14.20
2018-07-14T03:30:50.325Z,14.30
2018-07-14T03:31:23.362Z,14.20
2018-07-14T03:31:56.431Z,14.20
2018-07-14T03:32:29.426Z,14.20
2018-07-14T03:33:02.495Z,14.30
2018-07-14T03:33:35.498Z,14.30
2018-07-14T03:34:08.542Z,14.20
2018-07-14T03:34:41.562Z,14.20
2018-07-14T03:35:14.529Z,14.20
2018-07-14T03:35:47.542Z,14.20
2018-07-14T03:36:20.579Z,14.30
2018-07-14T03:36:53.629Z,14.20
2018-07-14T03:37:26.660Z,14.20
2018-07-14T03:37:59.638Z,14.30
2018-07-14T03:38:32.652Z,14.20
2018-07-14T03:39:05.899Z,14.20
2018-07-14T03:39:38.931Z,14.30
2018-07-14T03:40:11.950Z,14.20
2018-07-14T03:40:48.006Z,14.20
2018-07-14T03:41:21.020Z,14.30
2018-07-14T03:41:54.045Z,14.20
2018-07-14T03:42:27.044Z,14.30
2018-07-14T03:43:00.038Z,14.20
2018-07-14T03:43:33.101Z,14.20
2018-07-14T03:44:06.095Z,14.20
2018-07-14T03:44:39.111Z,14.20
2018-07-14T03:45:12.143Z,14.30
2018-07-14T03:45:45.212Z,14.30
2018-07-14T03:46:18.228Z,14.30
2018-07-14T03:46:51.218Z,14.20
2018-07-14T03:47:24.250Z,14.20
2018-07-14T03:47:57.311Z,14.20
2018-07-14T03:48:30.332Z,14.20
2018-07-14T03:49:03.360Z,14.30
2018-07-14T03:49:36.346Z,14.30
2018-07-14T03:50:09.412Z,14.20
2018-07-14T03:50:42.411Z,14.30
2018-07-14T03:51:15.504Z,14.20
2018-07-14T03:51:48.515Z,14.20
2018-07-14T03:52:21.579Z,14.20
2018-07-14T03:52:54.605Z,14.20
2018-07-14T03:53:27.631Z,14.30
2018-07-14T03:54:00.694Z,14.20
2018-07-14T03:54:33.697Z,14.30
2018-07-14T03:55:07.297Z,14.30
2018-07-14T03:55:40.322Z,14.20
2018-07-14T03:56:13.332Z,14.20
2018-07-14T03:56:46.361Z,14.20
2018-07-14T03:57:19.387Z,14.20
2018-07-14T03:57:52.418Z,14.20
2018-07-14T03:58:25.438Z,14.20
2018-07-14T03:58:58.495Z,14.20
2018-07-14T03:59:31.572Z,14.20
2018-07-14T04:00:05.394Z,14.20
2018-07-14T04:00:38.395Z,14.20
2018-07-14T04:01:11.403Z,14.20
2018-07-14T04:01:44.467Z,14.20
2018-07-14T04:02:17.461Z,14.20
2018-07-14T04:02:50.457Z,14.20
2018-07-14T04:03:23.527Z,14.30
2018-07-14T04:03:56.522Z,14.20
2018-07-14T04:04:29.574Z,14.10
2018-07-14T04:05:02.650Z,14.20
2018-07-14T04:05:35.646Z,14.20
2018-07-14T04:06:08.817Z,14.30
2018-07-14T04:06:41.862Z,14.30
2018-07-14T04:07:14.862Z,14.30
2018-07-14T04:07:48.017Z,14.30
2018-07-14T04:08:21.040Z,14.30
2018-07-14T04:08:54.057Z,14.30
2018-07-14T04:09:27.064Z,14.30
2018-07-14T04:10:00.208Z,14.30
2018-07-14T04:10:33.236Z,14.30
2018-07-14T04:11:06.273Z,14.40
2018-07-14T04:11:39.292Z,14.40
2018-07-14T04:12:12.352Z,14.30
2018-07-14T04:12:45.392Z,14.30
2018-07-14T04:13:18.419Z,14.40
2018-07-14T04:13:51.470Z,14.40
2018-07-14T04:14:24.486Z,14.40
2018-07-14T04:14:57.474Z,14.40
2018-07-14T04:15:30.507Z,14.40
2018-07-14T04:16:03.722Z,14.40
2018-07-14T04:16:36.729Z,14.40
2018-07-14T04:17:09.742Z,14.40
2018-07-14T04:17:42.832Z,14.40
2018-07-14T04:18:15.848Z,14.40
2018-07-14T04:18:48.851Z,14.40
2018-07-14T04:19:21.885Z,14.40
2018-07-14T04:19:54.922Z,14.40
2018-07-14T04:20:27.932Z,14.40
2018-07-14T04:21:00.973Z,14.40
2018-07-14T04:21:33.971Z,14.40
2018-07-14T04:22:07.029Z,14.40
2018-07-14T04:22:40.076Z,14.40
2018-07-14T04:23:13.069Z,14.40
2018-07-14T04:23:46.060Z,14.30
2018-07-14T04:24:19.159Z,14.40
2018-07-14T04:24:52.168Z,14.50
2018-07-14T04:25:25.202Z,14.40
2018-07-14T04:25:58.213Z,14.40
2018-07-14T04:26:31.206Z,14.40
2018-07-14T04:27:04.241Z,14.50
2018-07-14T04:27:37.271Z,14.50
2018-07-14T04:28:10.295Z,14.60
2018-07-14T04:28:43.323Z,14.60
2018-07-14T04:29:16.337Z,14.50
2018-07-14T04:29:49.326Z,14.60
2018-07-14T04:30:22.340Z,14.50
2018-07-14T04:30:55.404Z,14.50
2018-07-14T04:31:28.452Z,14.70
2018-07-14T04:32:01.460Z,14.70
2018-07-14T04:32:34.447Z,14.50
2018-07-14T04:33:07.542Z,14.70
2018-07-14T04:33:40.607Z,14.60
2018-07-14T04:34:13.623Z,14.70
2018-07-14T04:34:46.902Z,14.80
2018-07-14T04:35:19.955Z,14.70
2018-07-14T04:35:52.972Z,14.80
2018-07-14T04:36:25.996Z,14.80
2018-07-14T04:36:59.049Z,14.80
2018-07-14T04:37:32.051Z,14.80
2018-07-14T04:38:05.208Z,14.80
2018-07-14T04:38:38.221Z,14.70
2018-07-14T04:39:11.271Z,14.80
2018-07-14T04:39:44.318Z,14.80
2018-07-14T04:40:17.322Z,14.80
2018-07-14T04:40:50.431Z,14.90
2018-07-14T04:41:23.484Z,14.80
2018-07-14T04:41:56.586Z,14.90
2018-07-14T04:42:29.611Z,14.90
2018-07-14T04:43:02.664Z,14.90
2018-07-14T04:43:35.670Z,14.90
2018-07-14T04:44:08.698Z,14.90
2018-07-14T04:44:41.686Z,14.90
2018-07-14T04:45:14.695Z,15.00
2018-07-14T04:45:47.716Z,15.00
2018-07-14T04:46:20.732Z,15.00
2018-07-14T04:46:53.815Z,15.00
2018-07-14T04:47:26.808Z,15.00
2018-07-14T04:47:59.841Z,15.10
2018-07-14T04:48:32.895Z,15.10
2018-07-14T04:49:05.941Z,15.10
2018-07-14T04:49:39.012Z,15.10
2018-07-14T04:50:12.038Z,15.10
2018-07-14T04:50:45.072Z,15.20
2018-07-14T04:51:18.129Z,15.20
2018-07-14T04:51:51.219Z,15.20
2018-07-14T04:52:25.279Z,15.20
2018-07-14T04:52:58.329Z,15.20
2018-07-14T04:53:31.362Z,15.20
2018-07-14T04:54:04.431Z,15.30
2018-07-14T04:54:37.435Z,15.30
2018-07-14T04:55:10.475Z,15.40
2018-07-14T04:55:43.518Z,15.30
2018-07-14T04:56:16.548Z,15.40
2018-07-14T04:56:49.561Z,15.40
2018-07-14T04:57:22.611Z,15.50
2018-07-14T04:57:55.641Z,15.40
2018-07-14T04:58:28.673Z,15.50
2018-07-14T04:59:01.682Z,15.50
2018-07-14T04:59:34.727Z,15.60
2018-07-14T05:00:07.808Z,15.60
2018-07-14T05:00:40.869Z,15.60
2018-07-14T05:01:13.929Z,15.60
2018-07-14T05:01:46.955Z,15.60
2018-07-14T05:02:19.944Z,15.70
2018-07-14T05:02:53.013Z,15.60
2018-07-14T05:03:26.085Z,15.60
2018-07-14T05:03:59.129Z,15.60
2018-07-14T05:04:32.131Z,15.60
2018-07-14T05:05:05.468Z,15.70
2018-07-14T05:05:38.471Z,15.70
2018-07-14T05:06:11.603Z,15.80
2018-07-14T05:06:44.629Z,15.70
2018-07-14T05:07:17.657Z,15.80
2018-07-14T05:07:50.854Z,15.90
2018-07-14T05:08:23.917Z,15.90
2018-07-14T05:08:56.940Z,15.90
2018-07-14T05:09:29.945Z,15.90
2018-07-14T05:10:03.035Z,16.00
2018-07-14T05:10:36.081Z,16.10
2018-07-14T05:11:09.081Z,16.20
2018-07-14T05:11:42.115Z,16.10
2018-07-14T05:12:15.115Z,16.10
2018-07-14T05:12:48.145Z,16.20
2018-07-14T05:13:21.197Z,16.10
2018-07-14T05:13:54.225Z,16.20
2018-07-14T05:14:27.273Z,16.20
2018-07-14T05:15:00.329Z,16.20
2018-07-14T05:15:33.327Z,16.30
2018-07-14T05:16:06.433Z,16.30
2018-07-14T05:16:39.469Z,16.30
2018-07-14T05:17:12.475Z,16.40
2018-07-14T05:17:45.527Z,16.40
2018-07-14T05:18:18.577Z,16.40
2018-07-14T05:18:51.619Z,16.50
2018-07-14T05:19:24.646Z,16.50
2018-07-14T05:19:57.639Z,16.60
2018-07-14T05:20:30.699Z,16.60
2018-07-14T05:21:03.787Z,16.60
2018-07-14T05:21:36.800Z,16.80
2018-07-14T05:22:09.839Z,16.70
2018-07-14T05:22:42.949Z,16.90
2018-07-14T05:23:15.979Z,16.80
2018-07-14T05:23:49.005Z,16.80
2018-07-14T05:24:22.044Z,16.80
2018-07-14T05:24:55.060Z,16.80
2018-07-14T05:25:28.083Z,16.60
2018-07-14T05:26:01.131Z,16.60
2018-07-14T05:26:34.171Z,16.70
2018-07-14T05:27:07.230Z,16.90
2018-07-14T05:27:40.223Z,16.90
2018-07-14T05:28:13.247Z,16.80
2018-07-14T05:28:46.272Z,16.70
2018-07-14T05:29:19.312Z,16.90
2018-07-14T05:29:52.339Z,16.90
2018-07-14T05:30:25.505Z,16.90
2018-07-14T05:30:58.587Z,16.90
2018-07-14T05:31:31.647Z,16.90
2018-07-14T05:32:04.936Z,17.00
2018-07-14T05:32:37.955Z,17.00
2018-07-14T05:33:11.069Z,17.10
2018-07-14T05:33:44.069Z,17.20
2018-07-14T05:34:17.054Z,17.20
2018-07-14T05:34:50.115Z,17.20
2018-07-14T05:35:23.171Z,17.30
2018-07-14T05:35:56.255Z,17.30
2018-07-14T05:36:29.337Z,17.20
2018-07-14T05:37:02.433Z,17.30
2018-07-14T05:37:35.441Z,17.40
2018-07-14T05:38:08.460Z,17.50
2018-07-14T05:38:41.472Z,17.50
2018-07-14T05:39:14.519Z,17.50
2018-07-14T05:39:47.531Z,17.70
2018-07-14T05:40:20.587Z,17.70
2018-07-14T05:40:53.658Z,17.60
2018-07-14T05:41:26.653Z,17.60
2018-07-14T05:41:59.691Z,17.80
2018-07-14T05:42:32.732Z,17.80
2018-07-14T05:43:05.765Z,17.80
2018-07-14T05:43:38.825Z,17.80
2018-07-14T05:44:11.919Z,17.90
2018-07-14T05:44:44.930Z,18.00
2018-07-14T05:45:17.940Z,18.00
2018-07-14T05:45:50.990Z,18.00
2018-07-14T05:46:24.013Z,18.10
2018-07-14T05:46:57.013Z,18.20
2018-07-14T05:47:30.013Z,18.30
2018-07-14T05:48:03.041Z,18.30
2018-07-14T05:48:36.066Z,18.40
2018-07-14T05:49:09.093Z,18.40
2018-07-14T05:49:42.141Z,18.40
2018-07-14T05:50:15.160Z,18.50
2018-07-14T05:50:48.183Z,18.50
2018-07-14T05:51:21.191Z,18.50
2018-07-14T05:51:54.222Z,18.60
2018-07-14T05:52:27.279Z,18.70
2018-07-14T05:53:00.390Z,18.80
2018-07-14T05:53:33.439Z,18.80
2018-07-14T05:54:06.475Z,18.80
2018-07-14T05:54:39.538Z,18.90
2018-07-14T05:55:12.603Z,18.90
2018-07-14T05:55:45.613Z,19.00
2018-07-14T05:56:18.652Z,19.00
2018-07-14T05:56:51.667Z,19.00
2018-07-14T05:57:24.704Z,19.00
2018-07-14T05:57:57.794Z,19.10
2018-07-14T05:58:30.832Z,19.10
2018-07-14T05:59:03.866Z,19.00
2018-07-14T05:59:36.910Z,19.00
2018-07-14T06:00:10.009Z,18.90
2018-07-14T06:00:43.044Z,18.90
2018-07-14T06:01:16.114Z,19.00
2018-07-14T06:01:49.140Z,19.00
2018-07-14T06:02:22.202Z,19.00
2018-07-14T06:02:55.251Z,19.00
2018-07-14T06:03:28.305Z,18.80
2018-07-14T06:04:01.367Z,18.90
2018-07-14T06:04:34.406Z,18.70
2018-07-14T06:05:07.475Z,18.80
2018-07-14T06:05:40.526Z,18.80
2018-07-14T06:06:13.604Z,18.80
2018-07-14T06:06:46.629Z,18.80
2018-07-14T06:07:19.642Z,18.80
2018-07-14T06:07:52.996Z,18.80
2018-07-14T06:08:25.969Z,18.90
2018-07-14T06:08:58.988Z,19.00
2018-07-14T06:09:32.034Z,19.00
2018-07-14T06:10:05.120Z,19.00
2018-07-14T06:10:38.156Z,19.20
2018-07-14T06:11:11.164Z,19.30
2018-07-14T06:11:44.165Z,19.60
2018-07-14T06:12:17.212Z,19.30
2018-07-14T06:12:50.280Z,19.60
2018-07-14T06:13:23.400Z,19.90
2018-07-14T06:13:56.566Z,19.90
2018-07-14T06:14:29.595Z,20.00
2018-07-14T06:15:02.813Z,19.70
2018-07-14T06:15:35.870Z,19.80
2018-07-14T06:16:08.969Z,19.50
2018-07-14T06:16:41.993Z,19.70
2018-07-14T06:17:15.048Z,19.80
2018-07-14T06:17:48.109Z,20.00
2018-07-14T06:18:21.108Z,20.00
2018-07-14T06:18:54.108Z,20.00
2018-07-14T06:19:27.199Z,20.10
2018-07-14T06:20:00.185Z,20.40
2018-07-14T06:20:33.272Z,20.30
2018-07-14T06:21:06.314Z,20.50
2018-07-14T06:21:39.346Z,20.70
2018-07-14T06:22:12.390Z,20.60
2018-07-14T06:22:45.432Z,20.70
2018-07-14T06:23:18.456Z,20.70
2018-07-14T06:23:51.502Z,20.90
2018-07-14T06:24:24.578Z,21.00
2018-07-14T06:24:57.616Z,20.90
2018-07-14T06:25:30.691Z,21.00
2018-07-14T06:26:04.111Z,21.10
2018-07-14T06:26:37.159Z,20.80
2018-07-14T06:27:10.206Z,20.60
2018-07-14T06:27:43.298Z,20.40
2018-07-14T06:28:16.346Z,20.60
2018-07-14T06:28:49.391Z,20.60
2018-07-14T06:29:22.478Z,20.80
2018-07-14T06:29:55.514Z,20.90
2018-07-14T06:30:28.524Z,21.00
2018-07-14T06:31:01.562Z,21.10
2018-07-14T06:31:34.559Z,21.40
2018-07-14T06:32:07.725Z,21.50
2018-07-14T06:32:40.651Z,21.60
2018-07-14T06:33:13.693Z,21.70
2018-07-14T06:33:46.930Z,21.70
2018-07-14T06:34:19.964Z,21.50
2018-07-14T06:34:53.013Z,21.20
2018-07-14T06:35:26.072Z,20.90
2018-07-14T06:35:59.182Z,20.60
2018-07-14T06:36:32.247Z,20.80
2018-07-14T06:37:05.367Z,21.00
2018-07-14T06:37:38.434Z,21.20
2018-07-14T06:38:11.489Z,21.40
2018-07-14T06:38:44.572Z,21.40
2018-07-14T06:39:17.602Z,21.20
2018-07-14T06:39:50.650Z,21.00
2018-07-14T06:40:23.727Z,21.00
2018-07-14T06:40:56.809Z,21.50
2018-07-14T06:41:29.837Z,22.10
2018-07-14T06:42:02.915Z,22.90
2018-07-14T06:42:36.001Z,23.70
2018-07-14T06:43:09.074Z,24.80
2018-07-14T06:43:42.086Z,25.00
2018-07-14T06:44:15.134Z,24.40
2018-07-14T06:44:48.208Z,24.40
2018-07-14T06:45:21.193Z,24.10
2018-07-14T06:45:54.213Z,24.00
2018-07-14T06:46:27.306Z,23.90
2018-07-14T06:47:00.380Z,23.90
2018-07-14T06:47:33.602Z,24.00
2018-07-14T06:48:06.616Z,24.20
2018-07-14T06:48:39.670Z,25.00
2018-07-14T06:49:12.723Z,26.10
2018-07-14T06:49:45.782Z,27.10
2018-07-14T06:50:18.816Z,27.40
2018-07-14T06:50:51.856Z,27.70
2018-07-14T06:51:24.967Z,28.60
2018-07-14T06:51:58.005Z,28.20
2018-07-14T06:52:31.071Z,28.50
2018-07-14T06:53:04.134Z,28.30
2018-07-14T06:53:37.182Z,28.20
2018-07-14T06:54:10.267Z,28.70
2018-07-14T06:54:43.309Z,28.80
2018-07-14T06:55:16.460Z,28.50
2018-07-14T06:55:49.492Z,27.60
2018-07-14T06:56:22.558Z,26.90
2018-07-14T06:56:55.593Z,26.60
2018-07-14T06:57:28.635Z,26.20
2018-07-14T06:58:01.724Z,25.60
2018-07-14T06:58:34.768Z,25.80
2018-07-14T06:59:07.852Z,26.70
2018-07-14T06:59:40.939Z,27.50
2018-07-14T07:00:13.981Z,28.50
2018-07-14T07:00:47.056Z,29.40
2018-07-14T07:01:20.143Z,30.00
2018-07-14T07:01:53.147Z,30.80
2018-07-14T07:02:26.184Z,30.90
2018-07-14T07:02:59.202Z,31.20
2018-07-14T07:03:32.213Z,31.50
2018-07-14T07:04:05.331Z,31.10
2018-07-14T07:04:38.467Z,31.00
2018-07-14T07:05:11.545Z,31.10
2018-07-14T07:05:44.610Z,31.70